createdAt,value
2022-08-26T00:02:15.833Z,9.27
2022-08-26T00:04:46.140Z,9.45
2022-08-26T00:07:12.916Z,9.35
2022-08-26T00:09:40.344Z,8.38
2022-08-26T00:12:07.825Z,8.38
2022-08-26T00:14:35.618Z,9.35
2022-08-26T00:17:02.128Z,9.63
2022-08-26T00:19:28.699Z,9.52
2022-08-26T00:21:55.338Z,8.82
2022-08-26T00:24:22.555Z,9.70
2022-08-26T00:26:50.501Z,8.93
2022-08-26T00:29:18.222Z,9.63
2022-08-26T00:31:45.404Z,10.23
2022-08-26T00:34:12.815Z,9.63
2022-08-26T00:36:40.941Z,10.05
2022-08-26T00:39:08.294Z,9.68
2022-08-26T00:41:36.004Z,9.50
2022-08-26T00:44:02.851Z,9.70
2022-08-26T00:46:35.094Z,9.88
2022-08-26T00:49:12.502Z,10.10
2022-08-26T00:51:47.579Z,10.70
2022-08-26T00:54:16.173Z,10.73
2022-08-26T00:57:21.937Z,10.48
2022-08-26T00:59:54.706Z,9.88
2022-08-26T01:02:21.828Z,9.60
2022-08-26T01:04:55.815Z,10.07
2022-08-26T01:07:27.812Z,9.98
2022-08-26T01:09:59.550Z,10.38
2022-08-26T01:12:28.830Z,9.60
2022-08-26T01:14:55.652Z,9.45
2022-08-26T01:17:22.370Z,10.23
2022-08-26T01:20:01.267Z,10.50
2022-08-26T01:22:41.784Z,10.07
2022-08-26T01:25:11.219Z,9.32
2022-08-26T01:27:37.733Z,10.75
2022-08-26T01:30:06.350Z,10.77
2022-08-26T01:32:33.780Z,10.10
2022-08-26T01:35:00.997Z,10.77
2022-08-26T01:37:34.661Z,10.27
2022-08-26T01:40:01.285Z,10.40
2022-08-26T01:42:28.656Z,10.35
2022-08-26T01:45:04.847Z,10.40
2022-08-26T01:47:33.177Z,10.55
2022-08-26T01:50:02.940Z,12.32
2022-08-26T01:52:33.252Z,12.63
2022-08-26T01:55:00.810Z,11.95
2022-08-26T01:57:28.008Z,12.98
2022-08-26T02:00:00.844Z,13.57
2022-08-26T02:02:27.870Z,13.43
2022-08-26T02:04:59.830Z,13.00
2022-08-26T02:07:27.845Z,12.55
2022-08-26T02:09:55.040Z,12.70
2022-08-26T02:12:21.802Z,14.38
2022-08-26T02:14:53.617Z,14.68
2022-08-26T02:17:23.665Z,18.65
2022-08-26T02:19:50.762Z,21.42
2022-08-26T02:22:22.391Z,21.38
2022-08-26T02:24:51.217Z,20.10
2022-08-26T02:27:21.928Z,21.67
2022-08-26T02:29:54.990Z,19.85
2022-08-26T02:32:21.506Z,23.88
2022-08-26T02:34:49.850Z,23.77
2022-08-26T02:37:17.699Z,28.67
2022-08-26T02:39:44.494Z,24.23
2022-08-26T02:42:11.533Z,29.40
2022-08-26T02:44:39.087Z,29.95
2022-08-26T02:47:07.070Z,28.33
2022-08-26T02:49:34.350Z,29.70
2022-08-26T02:52:01.975Z,30.77
2022-08-26T02:54:28.859Z,32.92
2022-08-26T02:56:56.345Z,34.97
2022-08-26T02:59:24.315Z,33.55
2022-08-26T03:01:51.935Z,38.22
2022-08-26T03:04:18.889Z,39.08
2022-08-26T03:06:52.662Z,35.58
2022-08-26T03:09:19.961Z,36.72
2022-08-26T03:11:47.225Z,37.97
2022-08-26T03:14:14.202Z,38.13
2022-08-26T03:16:41.243Z,39.03
2022-08-26T03:19:09.457Z,40.38
2022-08-26T03:21:37.629Z,38.63
2022-08-26T03:24:04.677Z,40.17
2022-08-26T03:26:31.623Z,40.78
2022-08-26T03:29:16.694Z,41.80
2022-08-26T03:31:43.301Z,39.53
2022-08-26T03:34:09.957Z,45.92
2022-08-26T03:36:38.639Z,49.50
2022-08-26T03:39:06.669Z,46.17
2022-08-26T03:41:36.815Z,50.45
2022-08-26T03:44:05.694Z,51.20
2022-08-26T03:46:33.496Z,53.83
2022-08-26T03:49:02.454Z,55.03
2022-08-26T03:51:29.661Z,58.28
2022-08-26T03:53:59.006Z,56.28
2022-08-26T03:56:25.538Z,56.95
2022-08-26T03:58:53.139Z,55.75
2022-08-26T04:01:20.106Z,57.72
2022-08-26T04:04:00.229Z,58.45
2022-08-26T04:06:36.625Z,59.15
2022-08-26T04:09:10.878Z,59.50
2022-08-26T04:11:43.289Z,60.90
2022-08-26T04:14:14.202Z,61.10
2022-08-26T04:16:44.528Z,60.85
2022-08-26T04:19:12.603Z,61.15
2022-08-26T04:21:40.515Z,65.22
2022-08-26T04:24:12.070Z,67.43
2022-08-26T04:26:42.555Z,61.28
2022-08-26T04:29:18.552Z,62.58
2022-08-26T04:31:45.999Z,67.85
2022-08-26T04:34:14.166Z,67.00
2022-08-26T04:36:41.064Z,66.38
2022-08-26T04:39:12.029Z,61.70
2022-08-26T04:41:39.348Z,66.13
2022-08-26T04:44:06.638Z,66.72
2022-08-26T04:46:33.149Z,64.03
2022-08-26T04:49:00.107Z,67.15
2022-08-26T04:51:29.445Z,66.32
2022-08-26T04:53:58.062Z,63.17
2022-08-26T04:56:33.879Z,61.03
2022-08-26T04:59:01.762Z,58.17
2022-08-26T05:01:29.915Z,61.78
2022-08-26T05:03:57.082Z,61.63
2022-08-26T05:06:25.947Z,61.30
2022-08-26T05:08:53.021Z,54.42
2022-08-26T05:11:20.266Z,60.92
2022-08-26T05:13:48.681Z,58.45
2022-08-26T05:16:16.595Z,59.35
2022-08-26T05:18:44.946Z,59.30
2022-08-26T05:21:21.509Z,56.90
2022-08-26T05:26:22.855Z,49.15
2022-08-26T05:28:49.898Z,56.45
2022-08-26T05:31:19.914Z,54.75
2022-08-26T05:33:46.940Z,49.33
2022-08-26T05:36:17.428Z,53.83
2022-08-26T05:38:44.562Z,53.70
2022-08-26T05:41:21.616Z,52.65
2022-08-26T05:43:48.070Z,47.95
2022-08-26T05:46:15.487Z,46.33
2022-08-26T05:48:44.374Z,43.33
2022-08-26T05:51:12.057Z,50.08
2022-08-26T05:53:40.858Z,49.95
2022-08-26T05:56:11.797Z,50.13
2022-08-26T05:58:40.669Z,46.92
2022-08-26T06:01:20.308Z,47.53
2022-08-26T06:03:51.812Z,45.22
2022-08-26T06:06:33.812Z,47.25
2022-08-26T06:09:04.913Z,44.65
2022-08-26T06:11:32.961Z,42.65
2022-08-26T06:14:03.903Z,41.83
2022-08-26T06:16:32.569Z,45.15
2022-08-26T06:19:02.574Z,40.40
2022-08-26T06:21:32.458Z,44.78
2022-08-26T06:24:27.428Z,43.20
2022-08-26T06:26:56.467Z,44.25
2022-08-26T06:29:26.113Z,40.88
2022-08-26T06:31:54.374Z,43.30
2022-08-26T06:34:23.305Z,40.13
2022-08-26T06:36:58.562Z,41.70
2022-08-26T06:39:25.429Z,35.40
2022-08-26T06:41:52.042Z,39.80
2022-08-26T06:44:19.308Z,39.63
2022-08-26T06:46:46.069Z,40.22
2022-08-26T06:49:17.322Z,37.97
2022-08-26T06:51:43.987Z,37.03
2022-08-26T06:54:11.393Z,36.70
2022-08-26T06:56:41.866Z,38.78
2022-08-26T06:59:12.345Z,37.17
2022-08-26T07:01:45.656Z,35.72
2022-08-26T07:04:21.864Z,36.17
2022-08-26T07:06:52.781Z,36.65
2022-08-26T07:09:24.935Z,35.58
2022-08-26T07:11:52.958Z,37.30
2022-08-26T07:14:21.387Z,34.38
2022-08-26T07:16:49.773Z,32.83
2022-08-26T07:19:18.679Z,35.60
2022-08-26T07:21:57.373Z,31.48
2022-08-26T07:24:23.916Z,32.55
2022-08-26T07:26:59.151Z,30.33
2022-08-26T07:29:25.796Z,31.02
2022-08-26T07:31:52.254Z,30.88
2022-08-26T07:34:18.743Z,30.65
2022-08-26T07:36:45.260Z,29.33
2022-08-26T07:39:12.549Z,28.10
2022-08-26T07:41:39.448Z,27.83
2022-08-26T07:44:06.039Z,29.73
2022-08-26T07:46:35.249Z,27.25
2022-08-26T07:49:01.854Z,27.27
2022-08-26T07:51:28.449Z,28.15
2022-08-26T07:53:55.368Z,29.75
2022-08-26T07:56:23.342Z,26.00
2022-08-26T07:58:51.448Z,27.63
2022-08-26T08:01:23.774Z,23.33
2022-08-26T08:03:51.740Z,27.15
2022-08-26T08:06:20.004Z,25.42
2022-08-26T08:08:47.201Z,26.80
2022-08-26T08:11:14.106Z,24.45
2022-08-26T08:13:41.020Z,25.40
2022-08-26T08:16:08.597Z,25.73
2022-08-26T08:18:40.211Z,24.23
2022-08-26T08:21:24.189Z,24.02
2022-08-26T08:23:52.912Z,23.92
2022-08-26T08:26:20.074Z,23.60
2022-08-26T08:28:47.815Z,23.63
2022-08-26T08:34:14.721Z,19.92
2022-08-26T08:36:41.741Z,22.70
2022-08-26T08:39:08.268Z,23.15
2022-08-26T08:41:35.697Z,21.85
2022-08-26T08:44:02.763Z,21.25
2022-08-26T08:46:30.959Z,22.58
2022-08-26T08:48:59.994Z,21.58
2022-08-26T08:51:45.749Z,21.90
2022-08-26T08:54:13.224Z,21.67
2022-08-26T08:56:52.923Z,20.60
2022-08-26T08:59:26.353Z,19.67
2022-08-26T09:02:23.495Z,20.75
2022-08-26T09:05:28.510Z,20.30
2022-08-26T09:08:19.836Z,21.35
2022-08-26T09:10:53.163Z,19.20
2022-08-26T09:13:26.248Z,20.13
2022-08-26T09:16:09.962Z,20.60
2022-08-26T09:18:55.040Z,19.63
2022-08-26T09:21:23.823Z,21.30
2022-08-26T09:23:55.380Z,21.10
2022-08-26T09:26:39.699Z,21.35
2022-08-26T09:29:14.625Z,19.60
2022-08-26T09:31:41.394Z,19.70
2022-08-26T09:34:17.285Z,18.42
2022-08-26T09:36:44.193Z,18.90
2022-08-26T09:39:37.570Z,19.33
2022-08-26T09:42:12.766Z,18.10
2022-08-26T09:45:06.523Z,17.98
2022-08-26T09:47:36.139Z,18.90
2022-08-26T09:50:09.636Z,18.17
2022-08-26T09:52:36.882Z,18.75
2022-08-26T09:55:09.201Z,18.10
2022-08-26T09:57:44.835Z,16.23
2022-08-26T10:00:41.804Z,15.20
2022-08-26T10:03:23.918Z,13.65
2022-08-26T10:06:00.875Z,14.77
2022-08-26T10:08:40.862Z,12.63
2022-08-26T10:11:22.762Z,12.07
2022-08-26T10:13:56.819Z,11.70
2022-08-26T10:16:33.328Z,13.05
2022-08-26T10:19:01.647Z,11.52
2022-08-26T10:22:06.609Z,11.73
2022-08-26T10:24:48.314Z,11.75
2022-08-26T10:27:38.282Z,13.15
2022-08-26T10:30:20.056Z,13.05
2022-08-26T10:32:55.343Z,12.18
2022-08-26T10:35:22.191Z,13.82
2022-08-26T10:37:56.072Z,12.88
2022-08-26T10:40:30.639Z,13.60
2022-08-26T10:43:23.603Z,13.77
2022-08-26T10:46:06.923Z,12.60
2022-08-26T10:48:52.807Z,14.18
2022-08-26T10:51:26.824Z,14.02
2022-08-26T10:53:54.537Z,14.95
2022-08-26T10:56:51.809Z,15.73
2022-08-26T10:59:37.692Z,16.13
2022-08-26T11:02:11.571Z,12.88
2022-08-26T11:05:03.488Z,13.00
2022-08-26T11:07:32.942Z,9.15
2022-08-26T11:10:18.437Z,13.00
2022-08-26T11:12:45.443Z,13.52
2022-08-26T11:15:24.672Z,13.02
2022-08-26T11:17:51.369Z,13.98
2022-08-26T11:20:24.308Z,12.73
2022-08-26T11:22:52.922Z,12.50
2022-08-26T11:25:20.845Z,12.40
2022-08-26T11:27:50.809Z,11.80
2022-08-26T11:30:40.352Z,11.10
2022-08-26T11:33:08.172Z,11.98
2022-08-26T11:35:34.744Z,11.40
2022-08-26T11:38:42.802Z,10.93
2022-08-26T11:41:17.240Z,10.88
2022-08-26T11:43:45.288Z,9.73
2022-08-26T11:46:12.915Z,10.43
2022-08-26T11:48:42.019Z,8.65
2022-08-26T11:51:20.355Z,8.15
2022-08-26T11:53:47.419Z,8.93
2022-08-26T11:56:42.008Z,7.50
2022-08-26T11:59:11.711Z,8.73
2022-08-26T12:01:42.854Z,8.02
2022-08-26T12:04:13.689Z,9.13
2022-08-26T12:06:47.719Z,8.63
2022-08-26T12:09:28.952Z,9.07
2022-08-26T12:12:16.545Z,8.60
2022-08-26T12:14:43.936Z,8.35
2022-08-26T12:17:14.099Z,7.30
2022-08-26T12:19:40.896Z,8.30
2022-08-26T12:22:34.946Z,6.70
2022-08-26T12:25:07.002Z,7.63
2022-08-26T12:27:40.141Z,8.52
2022-08-26T12:30:14.581Z,7.68
2022-08-26T12:32:57.414Z,8.18
2022-08-26T12:35:25.512Z,8.15
2022-08-26T12:37:54.005Z,8.15
2022-08-26T12:40:33.439Z,7.93
2022-08-26T12:43:02.966Z,7.70
2022-08-26T12:45:30.836Z,8.10
2022-08-26T12:48:06.574Z,6.88
2022-08-26T12:50:36.514Z,6.65
2022-08-26T12:53:11.443Z,7.95
2022-08-26T12:55:45.571Z,6.25
2022-08-26T12:58:37.536Z,7.15
2022-08-26T13:01:04.166Z,7.53
2022-08-26T13:03:33.775Z,7.03
2022-08-26T13:06:29.749Z,7.00
2022-08-26T13:08:57.764Z,7.03
2022-08-26T13:11:30.396Z,5.82
2022-08-26T13:14:23.719Z,6.28
2022-08-26T13:16:52.157Z,6.65
2022-08-26T13:19:22.500Z,5.97
2022-08-26T13:21:54.760Z,7.90
2022-08-26T13:24:43.336Z,5.60
2022-08-26T13:27:12.576Z,5.25
2022-08-26T13:29:39.412Z,5.07
2022-08-26T13:32:07.757Z,5.32
2022-08-26T13:34:37.121Z,6.72
2022-08-26T13:37:04.742Z,5.95
2022-08-26T13:39:31.888Z,5.95
2022-08-26T13:41:58.476Z,5.07
2022-08-26T13:44:25.024Z,6.00
2022-08-26T13:46:51.756Z,5.70
2022-08-26T13:49:18.205Z,7.32
2022-08-26T13:51:44.855Z,5.88
2022-08-26T13:54:11.411Z,6.82
2022-08-26T13:56:38.168Z,6.47
2022-08-26T13:59:06.580Z,6.88
2022-08-26T14:01:34.413Z,6.57
2022-08-26T14:04:02.644Z,6.90
2022-08-26T14:06:29.223Z,6.45
2022-08-26T14:08:55.989Z,6.95
2022-08-26T14:11:24.791Z,6.53
2022-08-26T14:13:51.313Z,6.88
2022-08-26T14:16:27.497Z,7.43
2022-08-26T14:18:54.205Z,6.07
2022-08-26T14:21:21.276Z,7.13
2022-08-26T14:23:47.913Z,7.30
2022-08-26T14:26:27.791Z,5.32
2022-08-26T14:28:59.870Z,4.05
2022-08-26T14:31:29.198Z,5.15
2022-08-26T14:34:06.599Z,4.15
2022-08-26T14:36:33.571Z,3.45
2022-08-26T14:39:09.529Z,3.72
2022-08-26T14:41:42.782Z,3.30
2022-08-26T14:44:15.300Z,3.92
2022-08-26T14:46:49.552Z,3.40
2022-08-26T14:49:18.249Z,3.78
2022-08-26T14:51:44.876Z,4.28
2022-08-26T14:54:13.195Z,4.30
2022-08-26T14:56:42.634Z,3.47
2022-08-26T14:59:10.318Z,4.65
2022-08-26T15:01:37.015Z,3.83
2022-08-26T15:04:03.747Z,5.13
2022-08-26T15:06:31.725Z,3.88
2022-08-26T15:08:58.826Z,3.92
2022-08-26T15:11:25.355Z,4.82
2022-08-26T15:13:52.957Z,6.40
2022-08-26T15:16:19.816Z,5.30
2022-08-26T15:18:46.386Z,3.65
2022-08-26T15:21:12.985Z,4.22
2022-08-26T15:23:39.713Z,3.97
2022-08-26T15:26:10.789Z,4.70
2022-08-26T15:28:38.593Z,4.13
2022-08-26T15:31:06.624Z,4.45
2022-08-26T15:33:34.319Z,3.92
2022-08-26T15:36:02.059Z,5.07
2022-08-26T15:38:30.260Z,5.55
2022-08-26T15:41:01.015Z,4.70
2022-08-26T15:43:29.979Z,4.45
2022-08-26T15:45:57.721Z,4.50
2022-08-26T15:48:25.025Z,5.20
2022-08-26T15:50:51.581Z,4.68
2022-08-26T15:53:18.177Z,4.47
2022-08-26T15:55:44.787Z,5.07
2022-08-26T15:58:11.514Z,5.15
2022-08-26T16:00:39.389Z,4.65
2022-08-26T16:03:06.773Z,4.70
2022-08-26T16:05:37.967Z,5.03
2022-08-26T16:08:06.483Z,4.72
2022-08-26T16:10:38.314Z,4.15
2022-08-26T16:13:05.390Z,4.95
2022-08-26T16:15:32.921Z,4.40
2022-08-26T16:18:01.929Z,3.85
2022-08-26T16:20:29.516Z,4.57
2022-08-26T16:22:56.134Z,4.38
2022-08-26T16:25:22.674Z,4.07
2022-08-26T16:27:49.227Z,3.83
2022-08-26T16:30:16.547Z,3.97
2022-08-26T16:32:43.086Z,4.38
2022-08-26T16:35:09.726Z,3.63
2022-08-26T16:37:38.969Z,4.25
2022-08-26T16:40:07.212Z,4.25
2022-08-26T16:42:33.757Z,2.80
2022-08-26T16:45:00.234Z,4.00
2022-08-26T16:47:27.063Z,3.90
2022-08-26T16:49:53.617Z,3.22
2022-08-26T16:52:20.344Z,3.55
2022-08-26T16:54:47.403Z,3.80
2022-08-26T16:57:14.139Z,3.67
2022-08-26T16:59:41.554Z,4.20
2022-08-26T17:02:08.277Z,3.20
2022-08-26T17:04:34.758Z,3.00
2022-08-26T17:07:01.382Z,3.40
2022-08-26T17:09:28.010Z,3.60
2022-08-26T17:11:54.775Z,3.67
2022-08-26T17:14:21.288Z,3.88
2022-08-26T17:16:51.131Z,3.35
2022-08-26T17:19:19.190Z,3.90
2022-08-26T17:21:46.904Z,3.78
2022-08-26T17:24:14.355Z,4.40
2022-08-26T17:26:44.179Z,3.30
2022-08-26T17:29:15.202Z,3.50
2022-08-26T17:31:41.766Z,3.15
2022-08-26T17:34:10.115Z,2.80
2022-08-26T17:36:36.699Z,3.08
2022-08-26T17:39:03.750Z,4.47
2022-08-26T17:41:30.339Z,3.53
2022-08-26T17:43:57.111Z,3.97
2022-08-26T17:46:24.530Z,3.90
2022-08-26T17:48:51.217Z,3.45
2022-08-26T17:51:19.283Z,2.95
2022-08-26T17:53:46.664Z,3.22
2022-08-26T17:56:15.848Z,3.67
2022-08-26T17:58:51.020Z,3.80
2022-08-26T18:01:18.887Z,4.15
2022-08-26T18:03:45.492Z,4.75
2022-08-26T18:06:13.521Z,4.60
2022-08-26T18:08:41.637Z,4.38
2022-08-26T18:11:13.646Z,4.63
2022-08-26T18:13:45.845Z,2.72
2022-08-26T18:16:15.754Z,2.72
2022-08-26T18:18:43.049Z,2.85
2022-08-26T18:21:18.274Z,3.15
2022-08-26T18:23:46.945Z,3.22
2022-08-26T18:26:22.514Z,3.20
2022-08-26T18:28:49.495Z,2.55
2022-08-26T18:31:16.334Z,3.05
2022-08-26T18:33:43.084Z,4.13
2022-08-26T18:36:18.422Z,3.25
2022-08-26T18:38:46.223Z,4.22
2022-08-26T18:41:12.931Z,2.88
2022-08-26T18:43:39.422Z,3.20
2022-08-26T18:46:08.292Z,3.03
2022-08-26T18:48:36.695Z,3.03
2022-08-26T18:51:04.620Z,2.65
2022-08-26T18:53:31.582Z,2.83
2022-08-26T18:55:58.745Z,2.75
2022-08-26T18:58:25.692Z,2.60
2022-08-26T19:00:52.370Z,3.35
2022-08-26T19:03:19.794Z,2.72
2022-08-26T19:05:46.371Z,2.78
2022-08-26T19:08:12.959Z,2.85
2022-08-26T19:10:41.449Z,2.72
2022-08-26T19:13:09.850Z,3.38
2022-08-26T19:15:44.458Z,2.95
2022-08-26T19:18:14.427Z,2.60
2022-08-26T19:20:46.493Z,2.60
2022-08-26T19:23:30.987Z,2.90
2022-08-26T19:25:59.434Z,2.58
2022-08-26T19:28:25.962Z,2.95
2022-08-26T19:30:53.332Z,2.47
2022-08-26T19:33:20.158Z,4.00
2022-08-26T19:35:46.677Z,2.38
2022-08-26T19:38:14.004Z,2.35
2022-08-26T19:40:40.895Z,2.80
2022-08-26T19:43:07.416Z,2.45
2022-08-26T19:45:34.906Z,2.88
2022-08-26T19:48:02.976Z,2.00
2022-08-26T19:50:32.213Z,2.72
2022-08-26T19:52:59.856Z,2.38
2022-08-26T19:55:28.255Z,2.58
2022-08-26T19:57:54.827Z,2.72
2022-08-26T20:00:25.498Z,2.47
2022-08-26T20:02:52.540Z,3.03
2022-08-26T20:05:22.007Z,2.47
2022-08-26T20:07:49.828Z,2.60
2022-08-26T20:10:18.557Z,3.00
2022-08-26T20:12:45.489Z,3.40
2022-08-26T20:15:13.112Z,3.22
2022-08-26T20:17:40.674Z,3.20
2022-08-26T20:20:32.858Z,3.20
2022-08-26T20:23:01.837Z,2.72
2022-08-26T20:25:28.489Z,2.92
2022-08-26T20:27:55.000Z,3.40
2022-08-26T20:30:21.922Z,2.63
2022-08-26T20:32:48.467Z,3.35
2022-08-26T20:35:15.111Z,3.67
2022-08-26T20:37:42.510Z,3.20
2022-08-26T20:40:12.226Z,3.40
2022-08-26T20:42:38.834Z,3.65
2022-08-26T20:45:08.009Z,3.72
2022-08-26T20:47:34.570Z,4.85
2022-08-26T20:50:02.531Z,4.60
2022-08-26T20:52:29.153Z,4.20
2022-08-26T20:54:55.661Z,4.65
2022-08-26T20:57:22.321Z,6.63
2022-08-26T20:59:49.077Z,4.38
2022-08-26T21:02:16.211Z,4.53
2022-08-26T21:04:42.806Z,4.15
2022-08-26T21:07:09.504Z,3.80
2022-08-26T21:09:36.068Z,4.00
2022-08-26T21:12:04.038Z,4.22
2022-08-26T21:14:30.528Z,4.60
2022-08-26T21:16:57.118Z,4.50
2022-08-26T21:19:23.681Z,4.63
2022-08-26T21:21:50.560Z,4.75
2022-08-26T21:24:17.492Z,5.50
2022-08-26T21:26:44.557Z,5.75
2022-08-26T21:29:12.067Z,5.40
2022-08-26T21:31:43.533Z,6.45
2022-08-26T21:34:12.896Z,5.82
2022-08-26T21:36:39.404Z,5.65
2022-08-26T21:39:10.727Z,5.20
2022-08-26T21:41:38.847Z,6.30
2022-08-26T21:44:05.303Z,6.57
2022-08-26T21:46:32.024Z,6.20
2022-08-26T21:49:01.534Z,5.78
2022-08-26T21:51:30.912Z,5.88
2022-08-26T21:53:59.018Z,6.45
2022-08-26T21:56:28.082Z,6.80
2022-08-26T21:58:56.362Z,6.88
2022-08-26T22:01:26.048Z,7.43
2022-08-26T22:03:53.405Z,6.95
2022-08-26T22:06:22.574Z,7.57
2022-08-26T22:08:49.732Z,6.90
2022-08-26T22:11:16.872Z,6.20
2022-08-26T22:13:44.317Z,7.03
2022-08-26T22:16:11.707Z,7.03
2022-08-26T22:18:39.256Z,7.00
2022-08-26T22:21:08.360Z,6.40
2022-08-26T22:23:36.339Z,6.78
2022-08-26T22:26:04.036Z,7.85
2022-08-26T22:28:31.128Z,7.70
2022-08-26T22:30:57.908Z,7.10
2022-08-26T22:33:24.731Z,7.15
2022-08-26T22:35:52.688Z,8.35
2022-08-26T22:38:20.448Z,6.55
2022-08-26T22:40:55.283Z,7.05
2022-08-26T22:43:23.552Z,7.72
2022-08-26T22:45:51.198Z,7.32
2022-08-26T22:48:20.910Z,7.40
2022-08-26T22:50:48.293Z,7.68
2022-08-26T22:53:16.440Z,7.55
2022-08-26T22:55:43.821Z,8.00
2022-08-26T22:58:12.404Z,6.80
2022-08-26T23:00:39.980Z,6.32
2022-08-26T23:03:08.065Z,5.57
2022-08-26T23:05:35.770Z,4.60
2022-08-26T23:08:02.948Z,4.43
2022-08-26T23:10:29.949Z,4.43
2022-08-26T23:12:57.463Z,4.45
2022-08-26T23:15:24.497Z,4.18
2022-08-26T23:17:58.320Z,4.25
2022-08-26T23:20:27.576Z,4.43
2022-08-26T23:22:54.903Z,3.80
2022-08-26T23:25:22.419Z,4.53
2022-08-26T23:27:51.626Z,4.15
2022-08-26T23:30:22.853Z,5.00
2022-08-26T23:32:50.004Z,5.13
2022-08-26T23:35:20.106Z,5.00
2022-08-26T23:37:48.083Z,4.60
2022-08-26T23:40:19.313Z,4.28
2022-08-26T23:42:45.914Z,4.40
2022-08-26T23:45:13.701Z,4.20
2022-08-26T23:47:41.259Z,4.35
2022-08-26T23:50:08.595Z,4.60
2022-08-26T23:53:13.483Z,4.85
2022-08-26T23:55:39.982Z,4.10
2022-08-26T23:58:06.827Z,3.58
